Time;durP1;ratioP1;P1;durP2;ratioP2;P2;SDS_P1;SDS_P2;PMS_P1;PMS_P2;Temp;Humidity;BMP_temperature;BMP_pressure;BME280_temperature;BME280_humidity;BME280_pressure;Samples;Min_cycle;Max_cycle;Signal;HPM_P1;HPM_P2
2021/05/06 13:50:35;;;;;;;5.87;5.10;;;;;;;;;;5167707;27;20576;-69
2021/05/06 13:53:03;;;;;;;6.13;5.53;;;;;;;;;;5136290;27;20477;-64
2021/05/06 13:55:28;;;;;;;7.87;5.93;;;;;;;;;;5143974;27;20476;-66
2021/05/06 13:57:54;;;;;;;5.77;5.17;;;;;;;;;;5137699;27;20465;-69
2021/05/06 14:00:21;;;;;;;6.27;5.67;;;;;;;;;;5152843;27;20824;-70
2021/05/06 14:02:46;;;;;;;6.30;5.77;;;;;;;;;;5149140;27;20529;-69
2021/05/06 14:05:12;;;;;;;6.40;5.80;;;;;;;;;;5132659;27;20912;-68
2021/05/06 14:07:39;;;;;;;7.53;5.57;;;;;;;;;;5136553;27;20496;-68
2021/05/06 14:10:06;;;;;;;6.33;5.73;;;;;;;;;;5135375;27;20532;-69
2021/05/06 14:12:32;;;;;;;5.73;5.23;;;;;;;;;;5134978;28;21024;-70
2021/05/06 14:14:58;;;;;;;6.37;5.77;;;;;;;;;;5136418;28;20656;-65
2021/05/06 14:17:24;;;;;;;5.20;4.63;;;;;;;;;;5134669;27;20485;-66
2021/05/06 14:19:50;;;;;;;6.10;4.67;;;;;;;;;;5134237;28;20445;-66
2021/05/06 14:22:16;;;;;;;8.30;6.00;;;;;;;;;;5135492;27;20489;-65
2021/05/06 14:24:43;;;;;;;5.10;4.23;;;;;;;;;;5137747;27;20449;-66
2021/05/06 14:27:09;;;;;;;6.23;5.20;;;;;;;;;;5116500;27;20898;-70
2021/05/06 14:29:34;;;;;;;5.10;4.60;;;;;;;;;;5116240;28;20482;-71
2021/05/06 14:32:00;;;;;;;5.17;4.67;;;;;;;;;;5114398;28;20510;-69
2021/05/06 14:34:26;;;;;;;5.00;4.50;;;;;;;;;;5114477;28;20489;-69
2021/05/06 14:36:52;;;;;;;5.87;5.37;;;;;;;;;;5137253;27;20488;-70
2021/05/06 14:39:18;;;;;;;6.17;5.57;;;;;;;;;;5146307;27;20806;-68
2021/05/06 14:41:45;;;;;;;6.10;5.50;;;;;;;;;;5147755;27;20477;-72
2021/05/06 14:44:11;;;;;;;5.80;5.20;;;;;;;;;;5156771;27;20446;-66
2021/05/06 14:46:37;;;;;;;5.90;5.37;;;;;;;;;;5147691;27;20562;-67
2021/05/06 14:49:03;;;;;;;6.00;5.07;;;;;;;;;;5136810;28;20520;-71
2021/05/06 14:51:29;;;;;;;6.03;5.43;;;;;;;;;;5136535;27;20492;-70
2021/05/06 14:53:55;;;;;;;5.80;4.87;;;;;;;;;;5137799;27;20521;-73
2021/05/06 14:56:21;;;;;;;5.80;5.30;;;;;;;;;;5146000;27;20500;-70
2021/05/06 14:58:48;;;;;;;7.77;5.00;;;;;;;;;;5142214;27;20751;-70
2021/05/06 15:01:14;;;;;;;5.87;5.33;;;;;;;;;;5126651;27;20497;-71
2021/05/06 15:03:40;;;;;;;6.13;5.53;;;;;;;;;;5119973;27;20453;-68
2021/05/06 15:06:06;;;;;;;5.33;4.83;;;;;;;;;;5107876;28;20494;-70
2021/05/06 15:08:32;;;;;;;6.70;5.30;;;;;;;;;;5124709;27;20530;-67
2021/05/06 15:10:58;;;;;;;6.03;5.43;;;;;;;;;;5128665;27;20509;-68
2021/05/06 15:13:24;;;;;;;5.50;5.00;;;;;;;;;;5129989;27;20505;-71
2021/05/06 15:15:50;;;;;;;7.70;5.97;;;;;;;;;;5123162;28;20474;-72
2021/05/06 15:18:16;;;;;;;7.13;6.40;;;;;;;;;;5124056;27;20939;-71
2021/05/06 15:20:42;;;;;;;5.63;5.10;;;;;;;;;;5123025;28;20523;-74
2021/05/06 15:23:08;;;;;;;6.03;5.43;;;;;;;;;;5132984;27;20460;-73
2021/05/06 15:25:34;;;;;;;5.80;5.20;;;;;;;;;;5141503;27;20492;-72
2021/05/06 15:28:00;;;;;;;6.80;6.10;;;;;;;;;;5143303;27;20449;-73
2021/05/06 15:30:27;;;;;;;10.27;7.80;;;;;;;;;;5124290;27;20472;-73
2021/05/06 15:32:54;;;;;;;9.77;8.00;;;;;;;;;;5124654;27;20483;-72
2021/05/06 15:35:20;;;;;;;9.00;7.70;;;;;;;;;;5123430;28;20434;-74
2021/05/06 15:37:46;;;;;;;7.43;6.83;;;;;;;;;;5124674;27;20759;-70
2021/05/06 15:40:15;;;;;;;8.27;7.47;;;;;;;;;;5125079;27;20456;-74
2021/05/06 15:42:43;;;;;;;8.00;7.20;;;;;;;;;;5127691;27;20966;-72
2021/05/06 15:45:09;;;;;;;8.70;7.77;;;;;;;;;;5122479;28;20461;-72
2021/05/06 15:47:36;;;;;;;8.43;7.70;;;;;;;;;;5122773;27;21031;-73
2021/05/06 15:50:04;;;;;;;9.37;7.43;;;;;;;;;;5127876;27;20497;-72
2021/05/06 15:52:30;;;;;;;9.80;8.90;;;;;;;;;;5123185;28;20484;-72
2021/05/06 15:54:56;;;;;;;8.80;8.00;;;;;;;;;;5126376;27;20483;-72
2021/05/06 15:57:22;;;;;;;9.03;8.07;;;;;;;;;;5129760;27;20484;-71
2021/05/06 15:59:48;;;;;;;9.00;8.13;;;;;;;;;;5136835;27;20513;-74
2021/05/06 16:02:15;;;;;;;7.80;7.10;;;;;;;;;;5129242;27;20483;-75
2021/05/06 16:04:41;;;;;;;8.50;7.80;;;;;;;;;;5119287;27;20462;-72
2021/05/06 16:07:08;;;;;;;7.80;7.00;;;;;;;;;;5108136;27;20478;-73
2021/05/06 16:09:34;;;;;;;8.13;7.40;;;;;;;;;;5101099;28;20494;-76
2021/05/06 16:11:59;;;;;;;7.60;6.80;;;;;;;;;;5138912;27;20484;-73
2021/05/06 16:14:25;;;;;;;8.80;7.90;;;;;;;;;;5142838;27;20521;-73
2021/05/06 16:16:51;;;;;;;8.30;7.53;;;;;;;;;;5141630;27;20477;-74
2021/05/06 16:19:17;;;;;;;8.80;8.00;;;;;;;;;;5123430;27;20578;-75
2021/05/06 16:21:44;;;;;;;9.40;8.57;;;;;;;;;;5141950;27;20485;-78
2021/05/06 16:24:13;;;;;;;8.57;7.60;;;;;;;;;;5138733;27;20430;-78
2021/05/06 16:26:39;;;;;;;8.73;8.03;;;;;;;;;;5137835;27;20503;-75
2021/05/06 16:29:05;;;;;;;9.30;8.40;;;;;;;;;;5140551;27;20509;-74
2021/05/06 16:31:31;;;;;;;8.23;7.43;;;;;;;;;;5120963;27;20574;-76
2021/05/06 16:33:59;;;;;;;8.77;7.90;;;;;;;;;;5121609;28;20454;-74
2021/05/06 16:36:31;;;;;;;9.40;8.60;;;;;;;;;;5122636;27;20497;-76
2021/05/06 16:39:06;;;;;;;8.07;7.37;;;;;;;;;;5121530;28;20450;-75
2021/05/06 16:41:39;;;;;;;7.83;7.03;;;;;;;;;;5131257;27;20476;-73
2021/05/06 16:44:16;;;;;;;9.00;8.30;;;;;;;;;;5122270;27;20442;-73
2021/05/06 16:46:43;;;;;;;8.77;7.60;;;;;;;;;;5124987;27;20512;-64
2021/05/06 16:49:10;;;;;;;9.00;8.20;;;;;;;;;;5123848;27;20537;-70
2021/05/06 16:51:37;;;;;;;10.27;8.33;;;;;;;;;;5119788;27;21275;-69
2021/05/06 16:54:03;;;;;;;8.10;7.30;;;;;;;;;;5121723;27;20446;-65
2021/05/06 16:56:29;;;;;;;16.77;15.17;;;;;;;;;;5131387;27;20498;-69
2021/05/06 16:58:55;;;;;;;7.93;7.23;;;;;;;;;;5139359;27;20524;-75
2021/05/06 17:01:21;;;;;;;8.70;7.87;;;;;;;;;;5138682;27;20480;-72
2021/05/06 17:03:47;;;;;;;7.97;7.23;;;;;;;;;;5124479;27;20442;-70
2021/05/06 17:06:13;;;;;;;8.23;7.30;;;;;;;;;;5114002;27;20485;-70
2021/05/06 17:08:39;;;;;;;7.73;7.03;;;;;;;;;;5112437;28;20446;-68
2021/05/06 17:11:05;;;;;;;8.57;7.63;;;;;;;;;;5124051;27;20489;-67
2021/05/06 17:13:31;;;;;;;8.13;7.30;;;;;;;;;;5070708;27;20535;-67
2021/05/06 17:15:58;;;;;;;8.47;7.67;;;;;;;;;;5037270;28;20504;-69
2021/05/06 17:18:24;;;;;;;7.70;7.00;;;;;;;;;;5026064;28;84249;-68
2021/05/06 17:21:23;;;;;;;8.03;7.23;;;;;;;15.09;32.91;99132.59;5054969;27;20554;-67
2021/05/06 17:23:51;;;;;;;8.20;7.40;;;;;;;15.12;34.59;99134.88;5064193;28;20469;-72
2021/05/06 17:26:18;;;;;;;7.40;6.60;;;;;;;14.97;34.19;99133.13;5070091;28;20484;-69
2021/05/06 17:28:45;;;;;;;8.20;7.40;;;;;;;14.28;35.50;99125.72;5072927;28;20455;-65
2021/05/06 17:31:12;;;;;;;8.83;7.67;;;;;;;13.85;35.98;99126.53;5065732;28;20486;-71
2021/05/06 17:33:39;;;;;;;8.57;7.57;;;;;;;13.91;37.11;99128.44;5056194;28;20445;-70
2021/05/06 17:36:05;;;;;;;9.70;7.63;;;;;;;14.45;35.48;99128.97;5055939;28;20488;-74
2021/05/06 17:38:33;;;;;;;8.47;7.67;;;;;;;14.50;36.87;99130.03;5064796;28;20456;-73
2021/05/06 17:40:59;;;;;;;8.03;7.33;;;;;;;14.27;35.48;99132.94;5057174;28;20489;-71
2021/05/06 17:43:25;;;;;;;8.63;7.83;;;;;;;14.74;35.19;99135.22;5043770;28;20631;-73
2021/05/06 17:45:53;;;;;;;8.33;7.60;;;;;;;14.67;34.84;99124.44;5047014;28;20477;-69
2021/05/06 17:48:20;;;;;;;8.40;7.60;;;;;;;14.53;34.77;99131.53;5055815;28;20642;-69
2021/05/06 17:50:46;;;;;;;8.70;7.90;;;;;;;14.55;35.12;99134.00;5058342;28;20480;-68
2021/05/06 17:53:12;;;;;;;7.80;7.10;;;;;;;14.65;35.73;99131.84;5074540;28;20468;-69
2021/05/06 17:55:39;;;;;;;8.80;7.90;;;;;;;14.47;35.79;99126.91;5074846;28;20495;-65
2021/05/06 17:58:09;;;;;;;8.23;7.50;;;;;;;14.50;36.15;99129.22;5072587;28;20451;-68
2021/05/06 18:00:35;;;;;;;9.13;8.33;;;;;;;14.43;35.81;99131.03;5073867;28;20495;-67
2021/05/06 18:03:01;;;;;;;8.40;7.57;;;;;;;14.04;37.18;99122.34;5057460;28;20457;-71
2021/05/06 18:05:27;;;;;;;8.97;7.97;;;;;;;14.21;36.78;99132.88;5055060;28;20478;-72
2021/05/06 18:07:54;;;;;;;9.40;8.17;;;;;;;14.22;37.34;99129.19;5060396;28;20782;-70
2021/05/06 18:10:23;;;;;;;11.93;7.60;;;;;;;14.00;37.93;99136.38;5065410;28;20463;-70
2021/05/06 18:12:50;;;;;;;8.33;7.53;;;;;;;14.17;38.05;99132.44;5072909;28;20483;-71
2021/05/06 18:15:17;;;;;;;9.60;8.60;;;;;;;13.99;38.33;99134.72;5067277;28;20463;-73
2021/05/06 18:17:43;;;;;;;9.13;8.33;;;;;;;13.92;38.34;99148.06;5052330;28;20432;-68
2021/05/06 18:20:13;;;;;;;9.20;8.40;;;;;;;13.82;39.04;99150.22;5051800;28;20500;-73
2021/05/06 18:22:40;;;;;;;9.03;8.23;;;;;;;13.52;38.74;99152.97;5049764;28;20475;-70
2021/05/06 18:25:07;;;;;;;10.60;9.50;;;;;;;13.52;39.86;99156.50;5049819;28;20449;-71
2021/05/06 18:27:33;;;;;;;8.83;7.90;;;;;;;12.70;43.24;99153.78;5054367;28;20509;-72
2021/05/06 18:30:06;;;;;;;6.90;6.30;;;;;;;11.66;49.13;99168.34;5050991;28;20469;-73
2021/05/06 18:32:32;;;;;;;9.53;7.53;;;;;;;11.66;49.92;99173.69;5040311;28;20470;-73
2021/05/06 18:34:58;;;;;;;8.70;7.17;;;;;;;11.32;51.54;99163.31;5039024;28;20469;-75
2021/05/06 18:37:25;;;;;;;8.67;7.47;;;;;;;11.11;52.30;99159.34;5057597;28;20484;-76
2021/05/06 18:39:51;;;;;;;7.30;6.60;;;;;;;11.02;53.04;99163.03;5054497;28;20770;-72
2021/05/06 18:42:17;;;;;;;9.10;7.70;;;;;;;10.65;53.77;99164.41;5058622;28;21086;-75
2021/05/06 18:44:44;;;;;;;9.53;8.07;;;;;;;10.62;54.05;99167.41;5057757;28;20452;-71
2021/05/06 18:47:11;;;;;;;9.93;8.93;;;;;;;10.83;54.07;99180.28;5040944;28;20477;-68
2021/05/06 18:49:37;;;;;;;9.03;8.07;;;;;;;10.97;53.95;99183.25;5038762;28;20502;-73
2021/05/06 18:52:04;;;;;;;7.77;6.97;;;;;;;11.01;54.05;99185.44;5036533;28;20481;-74
2021/05/06 18:54:31;;;;;;;11.03;8.17;;;;;;;10.85;54.43;99188.97;5039403;28;20444;-73
2021/05/06 18:56:57;;;;;;;9.80;8.20;;;;;;;10.59;54.75;99193.63;5042063;28;20477;-71
2021/05/06 18:59:23;;;;;;;10.93;8.23;;;;;;;10.46;54.97;99194.16;5038068;28;20480;-72
2021/05/06 19:01:50;;;;;;;10.20;7.60;;;;;;;10.39;54.82;99198.50;5023002;28;20478;-71
2021/05/06 19:04:19;;;;;;;9.03;7.70;;;;;;;10.70;54.13;99193.31;5018969;28;20423;-69
2021/05/06 19:06:45;;;;;;;11.10;9.73;;;;;;;10.46;54.31;99197.66;5030808;28;20574;-71
2021/05/06 19:09:12;;;;;;;8.93;7.90;;;;;;;10.24;55.08;99199.13;5027162;28;20463;-70
2021/05/06 19:11:39;;;;;;;10.67;8.33;;;;;;;10.42;54.33;99203.50;5043407;28;20481;-72
2021/05/06 19:14:05;;;;;;;9.50;8.60;;;;;;;10.08;54.66;99199.88;5059292;28;20441;-75
2021/05/06 19:16:31;;;;;;;9.73;8.73;;;;;;;9.95;55.09;99202.22;5062081;28;20493;-75
2021/05/06 19:18:58;;;;;;;12.50;9.53;;;;;;;10.01;55.17;99206.06;5042337;28;20453;-75
2021/05/06 19:21:25;;;;;;;9.27;8.23;;;;;;;10.26;54.70;99210.47;5043650;28;20485;-70
2021/05/06 19:23:53;;;;;;;9.80;8.20;;;;;;;10.33;54.54;99211.50;5040736;28;20454;-75
2021/05/06 19:26:20;;;;;;;9.77;8.77;;;;;;;10.11;54.93;99215.59;5046941;28;20546;-70
2021/05/06 19:28:49;;;;;;;10.40;9.30;;;;;;;10.04;55.24;99219.91;5045665;28;20453;-73
2021/05/06 19:31:19;;;;;;;9.97;8.93;;;;;;;10.34;54.78;99221.16;5031548;28;20500;-70
2021/05/06 19:33:45;;;;;;;10.40;9.23;;;;;;;10.37;54.73;99230.72;5020502;28;20458;-71
2021/05/06 19:36:12;;;;;;;12.20;8.77;;;;;;;10.23;54.87;99226.81;5019094;28;20471;-72
2021/05/06 19:38:41;;;;;;;8.83;8.00;;;;;;;10.20;54.42;99232.47;5022332;28;20458;-73
2021/05/06 19:41:09;;;;;;;10.50;9.13;;;;;;;10.32;54.19;99233.03;5005738;28;20524;-71
2021/05/06 19:43:38;;;;;;;9.00;8.10;;;;;;;10.01;55.18;99238.09;5014121;28;20980;-71
2021/05/06 19:46:12;;;;;;;9.03;8.13;;;;;;;10.27;54.26;99238.00;5020026;28;20486;-71
2021/05/06 19:48:39;;;;;;;9.83;8.03;;;;;;;10.03;55.20;99241.44;5015446;28;20530;-70
2021/05/06 19:51:05;;;;;;;9.73;8.47;;;;;;;10.79;53.09;99245.78;5016312;28;20521;-67
2021/05/06 19:53:32;;;;;;;8.90;8.10;;;;;;;10.84;52.87;99250.63;5020804;28;20486;-70
2021/05/06 19:55:59;;;;;;;12.70;8.90;;;;;;;10.77;53.11;99252.31;5017991;28;20557;-72
2021/05/06 19:58:25;;;;;;;9.43;8.13;;;;;;;10.32;53.91;99255.25;5003879;28;20447;-78
2021/05/06 20:00:52;;;;;;;8.80;8.00;;;;;;;10.54;53.61;99252.97;5006650;28;20490;-74
2021/05/06 20:03:19;;;;;;;9.33;8.00;;;;;;;10.88;52.41;99259.97;5039689;28;20544;-73
2021/05/06 20:05:45;;;;;;;10.17;9.17;;;;;;;11.06;52.10;99254.50;5031774;28;20475;-69
2021/05/06 20:08:12;;;;;;;9.73;8.83;;;;;;;11.33;51.89;99263.13;5018163;28;20454;-68
2021/05/06 20:10:38;;;;;;;10.00;8.67;;;;;;;11.41;51.43;99266.63;5013458;28;20568;-69
2021/05/06 20:13:07;;;;;;;10.60;8.00;;;;;;;11.36;51.85;99268.97;5005236;28;20456;-70
2021/05/06 20:15:33;;;;;;;9.23;8.33;;;;;;;11.43;52.49;99278.00;5001023;28;20502;-69
2021/05/06 20:18:00;;;;;;;8.87;7.97;;;;;;;11.36;53.32;99278.88;5002515;28;20440;-71
2021/05/06 20:20:29;;;;;;;8.73;7.87;;;;;;;11.11;55.04;99284.25;5009925;28;20563;-70
2021/05/06 20:22:57;;;;;;;9.20;8.27;;;;;;;11.00;56.64;99296.09;5018302;28;20531;-70
2021/05/06 20:25:24;;;;;;;9.93;8.93;;;;;;;10.86;57.53;99308.28;5006626;28;20976;-73
2021/05/06 20:27:50;;;;;;;14.40;10.13;;;;;;;10.74;57.55;99301.59;5031772;28;20439;-73
2021/05/06 20:30:19;;;;;;;11.57;10.30;;;;;;;10.74;57.51;99309.59;5025379;28;20446;-73
2021/05/06 20:32:45;;;;;;;12.07;10.23;;;;;;;10.45;57.94;99302.88;5009858;28;20455;-73
2021/05/06 20:35:11;;;;;;;14.40;11.77;;;;;;;10.08;61.23;99306.72;5003486;28;20444;-77
2021/05/06 20:37:38;;;;;;;13.50;11.40;;;;;;;9.67;62.58;99314.53;5020819;28;20458;-74
2021/05/06 20:40:08;;;;;;;13.23;12.00;;;;;;;9.35;63.06;99318.66;5019836;28;20490;-75
2021/05/06 20:42:45;;;;;;;15.30;11.63;;;;;;;9.12;65.29;99322.81;5034549;28;20538;-70
2021/05/06 20:45:12;;;;;;;12.90;11.50;;;;;;;9.07;65.76;99325.09;5022030;28;20797;-75
2021/05/06 20:47:39;;;;;;;14.10;12.60;;;;;;;9.35;65.38;99320.47;5012208;28;20439;-73
2021/05/06 20:50:06;;;;;;;13.73;12.33;;;;;;;8.85;66.51;99328.09;5006671;28;20764;-72
2021/05/06 20:52:32;;;;;;;14.07;12.57;;;;;;;9.04;65.17;99329.75;5012726;28;20450;-73
2021/05/06 20:54:59;;;;;;;14.87;13.27;;;;;;;9.47;64.44;99334.41;5018322;28;20443;-73
2021/05/06 20:57:25;;;;;;;19.53;14.00;;;;;;;9.51;65.08;99333.97;5013816;28;20529;-73
2021/05/06 20:59:52;;;;;;;15.90;13.40;;;;;;;9.26;65.53;99340.09;5006937;28;20514;-73
2021/05/06 21:02:20;;;;;;;15.57;13.47;;;;;;;9.40;64.77;99327.03;5004869;28;20506;-72
2021/05/06 21:04:47;;;;;;;14.77;13.27;;;;;;;9.04;64.97;99311.09;5005418;28;20446;-76
2021/05/06 21:07:14;;;;;;;15.63;13.93;;;;;;;8.58;67.12;99310.31;5014712;28;20494;-72
2021/05/06 21:09:40;;;;;;;17.27;15.57;;;;;;;8.85;67.49;99297.91;5003203;28;20452;-75
2021/05/06 21:12:08;;;;;;;16.13;14.43;;;;;;;9.30;65.39;99285.44;5019200;28;21071;-75
2021/05/06 21:14:34;;;;;;;17.20;15.00;;;;;;;9.13;66.04;99285.34;5033374;28;20460;-71
2021/05/06 21:17:01;;;;;;;16.57;14.80;;;;;;;9.27;65.48;99291.06;5018026;28;20480;-76
2021/05/06 21:19:27;;;;;;;18.33;14.67;;;;;;;9.57;64.94;99287.94;5003072;28;20494;-72
2021/05/06 21:21:54;;;;;;;18.23;14.00;;;;;;;9.58;64.34;99278.09;5007814;28;20505;-71
2021/05/06 21:24:21;;;;;;;17.20;14.30;;;;;;;9.52;64.35;99273.41;5005893;28;20455;-73
2021/05/06 21:26:48;;;;;;;16.00;13.67;;;;;;;9.60;64.99;99268.97;5013927;28;20510;-71
2021/05/06 21:29:16;;;;;;;18.70;16.03;;;;;;;9.65;64.71;99278.31;5012710;28;20959;-73
2021/05/06 21:31:43;;;;;;;15.37;13.57;;;;;;;9.63;64.78;99270.47;5001884;28;20483;-73
2021/05/06 21:34:10;;;;;;;17.03;14.70;;;;;;;9.36;65.74;99276.81;5003908;28;20439;-72
2021/05/06 21:36:36;;;;;;;13.97;12.50;;;;;;;9.65;64.80;99273.81;5001504;28;20497;-74
2021/05/06 21:39:04;;;;;;;17.40;13.73;;;;;;;9.37;65.01;99263.34;5001505;28;20560;-70
2021/05/06 21:41:30;;;;;;;14.40;12.90;;;;;;;9.59;64.48;99269.94;5004108;28;20487;-75
2021/05/06 21:43:57;;;;;;;16.17;13.50;;;;;;;9.91;63.94;99270.25;5011073;28;20534;-74
2021/05/06 21:46:24;;;;;;;18.10;13.50;;;;;;;9.67;64.06;99266.50;5000980;28;20551;-71
2021/05/06 21:48:51;;;;;;;14.20;12.00;;;;;;;9.32;64.67;99260.28;5011427;28;20500;-75
2021/05/06 21:51:17;;;;;;;14.20;12.70;;;;;;;9.07;66.41;99266.44;5021276;28;20475;-73
2021/05/06 21:53:43;;;;;;;14.07;12.40;;;;;;;9.18;66.06;99263.50;5021565;28;20458;-73
2021/05/06 21:56:10;;;;;;;13.33;11.93;;;;;;;8.92;66.47;99268.81;5020284;28;20478;-73
2021/05/06 21:58:36;;;;;;;15.20;11.87;;;;;;;9.20;65.76;99262.38;5004309;28;20997;-75
2021/05/06 22:01:02;;;;;;;12.07;10.77;;;;;;;8.91;67.07;99245.84;5003357;28;20515;-74
2021/05/06 22:03:28;;;;;;;13.90;12.17;;;;;;;8.56;68.62;99236.84;5017824;28;20621;-75
2021/05/06 22:05:55;;;;;;;12.07;10.90;;;;;;;8.56;67.31;99245.69;5001755;28;20479;-75
2021/05/06 22:08:21;;;;;;;13.37;12.00;;;;;;;8.94;67.06;99245.50;5006215;28;20506;-74
2021/05/06 22:10:47;;;;;;;12.93;11.40;;;;;;;9.52;65.25;99246.72;5012682;28;21071;-74
2021/05/06 22:13:14;;;;;;;13.17;11.70;;;;;;;9.78;64.31;99247.50;5017292;28;20454;-74
2021/05/06 22:15:42;;;;;;;14.33;11.37;;;;;;;9.90;63.67;99260.59;5022275;28;20478;-72
2021/05/06 22:18:12;;;;;;;11.37;10.10;;;;;;;9.95;63.67;99259.09;5005860;28;20439;-72
2021/05/06 22:20:38;;;;;;;13.30;11.40;;;;;;;10.05;63.43;99258.13;5004830;28;20490;-70
2021/05/06 22:23:04;;;;;;;11.07;9.80;;;;;;;10.13;63.27;99259.00;5005416;28;20475;-73
2021/05/06 22:25:31;;;;;;;11.57;10.27;;;;;;;10.11;63.59;99266.34;5017874;28;20481;-71
2021/05/06 22:27:57;;;;;;;12.07;10.77;;;;;;;10.07;63.54;99267.66;5016125;28;20949;-74
2021/05/06 22:30:26;;;;;;;10.93;9.83;;;;;;;10.09;62.76;99265.66;5004964;28;20448;-72
2021/05/06 22:32:52;;;;;;;11.60;10.43;;;;;;;9.57;65.03;99268.44;5010292;28;20459;-71
2021/05/06 22:35:18;;;;;;;12.33;11.10;;;;;;;9.87;64.53;99275.09;5004918;28;20438;-72
2021/05/06 22:37:44;;;;;;;12.37;11.10;;;;;;;9.85;64.20;99265.56;5019362;28;20987;-71
2021/05/06 22:40:11;;;;;;;14.17;11.50;;;;;;;9.88;63.72;99273.28;5022493;28;20517;-68
2021/05/06 22:42:38;;;;;;;13.00;11.60;;;;;;;9.98;63.70;99280.16;5010615;28;20455;-72
2021/05/06 22:45:05;;;;;;;12.87;11.53;;;;;;;9.97;63.90;99274.97;5008129;28;20489;-67
2021/05/06 22:47:32;;;;;;;13.57;11.93;;;;;;;9.80;63.73;99277.56;5004705;28;20535;-70
2021/05/06 22:49:58;;;;;;;14.83;13.30;;;;;;;10.01;63.55;99268.28;5011659;28;20487;-71
2021/05/06 22:52:24;;;;;;;14.37;12.87;;;;;;;10.00;63.71;99285.34;5004442;28;20515;-71
2021/05/06 22:54:50;;;;;;;17.60;14.47;;;;;;;10.12;63.25;99281.38;5005155;28;20483;-70
2021/05/06 22:57:18;;;;;;;14.90;13.33;;;;;;;10.12;63.51;99284.03;5008062;28;20487;-69
2021/05/06 22:59:44;;;;;;;16.13;13.77;;;;;;;10.11;63.35;99274.34;5009983;28;20475;-72
2021/05/06 23:02:10;;;;;;;16.67;14.30;;;;;;;9.94;63.34;99278.78;5004809;28;20545;-73
2021/05/06 23:04:37;;;;;;;16.00;14.30;;;;;;;10.05;63.90;99290.19;5009237;28;20486;-71
2021/05/06 23:07:04;;;;;;;16.33;14.47;;;;;;;10.07;63.52;99285.50;5004065;28;20506;-71
2021/05/06 23:09:31;;;;;;;17.20;14.13;;;;;;;10.25;62.82;99286.25;5013789;28;20486;-70
2021/05/06 23:11:57;;;;;;;15.40;13.20;;;;;;;10.24;62.52;99289.06;5009845;28;20479;-72
2021/05/06 23:14:23;;;;;;;17.00;14.77;;;;;;;10.15;62.79;99296.22;5017136;28;20473;-72
2021/05/06 23:16:49;;;;;;;16.43;14.77;;;;;;;10.02;63.84;99294.03;5019475;28;20511;-69
2021/05/06 23:19:15;;;;;;;17.47;15.17;;;;;;;9.98;63.94;99296.19;5022230;28;20529;-71
2021/05/06 23:21:42;;;;;;;16.33;14.63;;;;;;;10.08;63.51;99297.88;5017905;28;20530;-71
2021/05/06 23:24:09;;;;;;;17.67;15.80;;;;;;;10.25;62.25;99296.94;5023618;28;20501;-72
2021/05/06 23:26:35;;;;;;;18.27;15.37;;;;;;;10.20;62.70;99295.75;5011473;28;20515;-70
2021/05/06 23:29:01;;;;;;;19.07;16.20;;;;;;;10.18;62.65;99294.06;5004468;28;20448;-72
2021/05/06 23:31:28;;;;;;;18.30;13.97;;;;;;;10.18;62.71;99302.06;5003826;28;20475;-73
2021/05/06 23:33:55;;;;;;;18.50;15.50;;;;;;;10.21;62.60;99311.63;5016007;28;20462;-72
2021/05/06 23:36:21;;;;;;;17.80;15.43;;;;;;;9.95;63.81;99317.84;5022768;28;20580;-73
2021/05/06 23:38:49;;;;;;;19.00;15.17;;;;;;;9.56;65.17;99312.94;5023252;28;20526;-71
2021/05/06 23:41:15;;;;;;;16.70;14.13;;;;;;;8.79;67.07;99322.53;5006962;28;20521;-71
2021/05/06 23:43:42;;;;;;;18.20;15.27;;;;;;;9.07;67.07;99323.25;5004778;28;20479;-70
2021/05/06 23:46:08;;;;;;;16.37;14.37;;;;;;;8.85;67.58;99320.09;5021838;28;20466;-71
2021/05/06 23:48:34;;;;;;;16.90;14.90;;;;;;;9.10;66.38;99325.63;5022997;28;20765;-72
2021/05/06 23:51:00;;;;;;;18.00;15.27;;;;;;;9.16;65.73;99319.66;5008125;28;20588;-70
2021/05/06 23:53:26;;;;;;;17.20;14.93;;;;;;;9.15;66.00;99323.34;5022090;28;20510;-70
2021/05/06 23:55:54;;;;;;;18.07;14.80;;;;;;;8.75;67.51;99340.66;5022035;28;20568;-70
2021/05/06 23:58:26;;;;;;;12.23;10.93;;;;;;;8.15;66.05;99330.44;5013311;28;20447;-66
